sensor_id;sensor_type;location;lat;lon;timestamp;P1;durP1;ratioP1;P2;durP2;ratioP2
76409;SDS011;65238;42.662;23.280;2024-02-14T00:02:23;8.52;;;6.10;;
76409;SDS011;65238;42.662;23.280;2024-02-14T00:04:50;9.73;;;6.07;;
76409;SDS011;65238;42.662;23.280;2024-02-14T00:07:17;12.20;;;6.38;;
76409;SDS011;65238;42.662;23.280;2024-02-14T00:09:42;10.52;;;6.25;;
76409;SDS011;65238;42.662;23.280;2024-02-14T00:12:07;9.57;;;6.47;;
76409;SDS011;65238;42.662;23.280;2024-02-14T00:14:34;13.25;;;6.65;;
76409;SDS011;65238;42.662;23.280;2024-02-14T00:16:59;10.23;;;6.25;;
76409;SDS011;65238;42.662;23.280;2024-02-14T00:19:25;9.25;;;6.07;;
76409;SDS011;65238;42.662;23.280;2024-02-14T00:21:50;9.63;;;6.78;;
76409;SDS011;65238;42.662;23.280;2024-02-14T00:24:16;12.80;;;7.00;;
76409;SDS011;65238;42.662;23.280;2024-02-14T00:26:42;10.02;;;6.03;;
76409;SDS011;65238;42.662;23.280;2024-02-14T00:29:08;9.25;;;6.60;;
76409;SDS011;65238;42.662;23.280;2024-02-14T00:31:33;12.60;;;7.10;;
76409;SDS011;65238;42.662;23.280;2024-02-14T00:33:58;9.48;;;6.50;;
76409;SDS011;65238;42.662;23.280;2024-02-14T00:36:24;11.15;;;6.88;;
76409;SDS011;65238;42.662;23.280;2024-02-14T00:38:49;11.80;;;6.55;;
76409;SDS011;65238;42.662;23.280;2024-02-14T00:41:15;9.38;;;6.32;;
76409;SDS011;65238;42.662;23.280;2024-02-14T00:43:40;9.27;;;6.03;;
76409;SDS011;65238;42.662;23.280;2024-02-14T00:46:05;11.70;;;6.88;;
76409;SDS011;65238;42.662;23.280;2024-02-14T00:48:34;8.80;;;6.20;;
76409;SDS011;65238;42.662;23.280;2024-02-14T00:50:59;11.07;;;6.45;;
76409;SDS011;65238;42.662;23.280;2024-02-14T00:53:25;10.55;;;6.55;;
76409;SDS011;65238;42.662;23.280;2024-02-14T00:55:50;10.68;;;7.03;;
76409;SDS011;65238;42.662;23.280;2024-02-14T00:58:16;11.93;;;6.88;;
76409;SDS011;65238;42.662;23.280;2024-02-14T01:00:42;9.05;;;6.28;;
76409;SDS011;65238;42.662;23.280;2024-02-14T01:03:07;10.13;;;7.28;;
76409;SDS011;65238;42.662;23.280;2024-02-14T01:05:33;9.98;;;6.38;;
76409;SDS011;65238;42.662;23.280;2024-02-14T01:07:58;10.20;;;6.55;;
76409;SDS011;65238;42.662;23.280;2024-02-14T01:10:24;11.70;;;7.18;;
76409;SDS011;65238;42.662;23.280;2024-02-14T01:12:49;13.05;;;7.13;;
76409;SDS011;65238;42.662;23.280;2024-02-14T01:15:15;12.52;;;7.40;;
76409;SDS011;65238;42.662;23.280;2024-02-14T01:17:40;11.48;;;7.80;;
76409;SDS011;65238;42.662;23.280;2024-02-14T01:20:06;11.82;;;7.38;;
76409;SDS011;65238;42.662;23.280;2024-02-14T01:22:35;11.88;;;7.78;;
76409;SDS011;65238;42.662;23.280;2024-02-14T01:25:01;13.75;;;7.78;;
76409;SDS011;65238;42.662;23.280;2024-02-14T01:27:27;10.48;;;7.07;;
76409;SDS011;65238;42.662;23.280;2024-02-14T01:29:53;12.18;;;7.72;;
76409;SDS011;65238;42.662;23.280;2024-02-14T01:32:20;11.07;;;7.47;;
76409;SDS011;65238;42.662;23.280;2024-02-14T01:34:45;12.35;;;8.00;;
76409;SDS011;65238;42.662;23.280;2024-02-14T01:37:11;13.70;;;8.10;;
76409;SDS011;65238;42.662;23.280;2024-02-14T01:39:36;14.07;;;7.97;;
76409;SDS011;65238;42.662;23.280;2024-02-14T01:42:02;10.95;;;7.25;;
76409;SDS011;65238;42.662;23.280;2024-02-14T01:44:32;11.63;;;7.45;;
76409;SDS011;65238;42.662;23.280;2024-02-14T01:46:57;13.38;;;7.97;;
76409;SDS011;65238;42.662;23.280;2024-02-14T01:49:23;11.30;;;7.82;;
76409;SDS011;65238;42.662;23.280;2024-02-14T01:51:49;12.02;;;8.25;;
76409;SDS011;65238;42.662;23.280;2024-02-14T01:54:14;13.75;;;8.20;;
76409;SDS011;65238;42.662;23.280;2024-02-14T01:56:40;11.82;;;8.13;;
76409;SDS011;65238;42.662;23.280;2024-02-14T01:59:06;11.27;;;7.30;;
76409;SDS011;65238;42.662;23.280;2024-02-14T02:01:32;13.63;;;8.48;;
76409;SDS011;65238;42.662;23.280;2024-02-14T02:03:58;14.50;;;8.23;;
76409;SDS011;65238;42.662;23.280;2024-02-14T02:06:24;10.73;;;7.35;;
76409;SDS011;65238;42.662;23.280;2024-02-14T02:08:51;10.57;;;6.93;;
76409;SDS011;65238;42.662;23.280;2024-02-14T02:11:17;12.73;;;8.13;;
76409;SDS011;65238;42.662;23.280;2024-02-14T02:13:42;11.82;;;7.50;;
76409;SDS011;65238;42.662;23.280;2024-02-14T02:16:08;11.88;;;7.57;;
76409;SDS011;65238;42.662;23.280;2024-02-14T02:18:34;12.50;;;8.48;;
76409;SDS011;65238;42.662;23.280;2024-02-14T02:20:59;12.27;;;7.40;;
76409;SDS011;65238;42.662;23.280;2024-02-14T02:23:25;13.02;;;8.20;;
76409;SDS011;65238;42.662;23.280;2024-02-14T02:25:50;12.27;;;7.57;;
76409;SDS011;65238;42.662;23.280;2024-02-14T02:28:16;14.68;;;8.05;;
76409;SDS011;65238;42.662;23.280;2024-02-14T02:30:41;11.77;;;7.38;;
76409;SDS011;65238;42.662;23.280;2024-02-14T02:33:07;11.63;;;7.95;;
76409;SDS011;65238;42.662;23.280;2024-02-14T02:35:33;12.18;;;7.93;;
76409;SDS011;65238;42.662;23.280;2024-02-14T02:37:59;10.85;;;7.47;;
76409;SDS011;65238;42.662;23.280;2024-02-14T02:40:25;11.32;;;7.38;;
76409;SDS011;65238;42.662;23.280;2024-02-14T02:42:52;13.93;;;7.88;;
76409;SDS011;65238;42.662;23.280;2024-02-14T02:45:18;12.40;;;7.90;;
76409;SDS011;65238;42.662;23.280;2024-02-14T02:47:43;12.77;;;7.78;;
76409;SDS011;65238;42.662;23.280;2024-02-14T02:50:09;11.52;;;7.70;;
76409;SDS011;65238;42.662;23.280;2024-02-14T02:52:34;12.02;;;7.72;;
76409;SDS011;65238;42.662;23.280;2024-02-14T02:55:00;11.10;;;7.65;;
76409;SDS011;65238;42.662;23.280;2024-02-14T02:57:26;13.00;;;7.93;;
76409;SDS011;65238;42.662;23.280;2024-02-14T02:59:52;11.43;;;6.88;;
76409;SDS011;65238;42.662;23.280;2024-02-14T03:02:19;13.93;;;7.75;;
76409;SDS011;65238;42.662;23.280;2024-02-14T03:04:45;12.77;;;7.78;;
76409;SDS011;65238;42.662;23.280;2024-02-14T03:07:11;13.93;;;8.43;;
76409;SDS011;65238;42.662;23.280;2024-02-14T03:09:37;11.32;;;7.38;;
76409;SDS011;65238;42.662;23.280;2024-02-14T03:12:03;11.40;;;7.80;;
76409;SDS011;65238;42.662;23.280;2024-02-14T03:14:32;12.05;;;7.80;;
76409;SDS011;65238;42.662;23.280;2024-02-14T03:17:01;12.32;;;7.82;;
76409;SDS011;65238;42.662;23.280;2024-02-14T03:19:29;12.32;;;8.20;;
76409;SDS011;65238;42.662;23.280;2024-02-14T03:21:55;15.02;;;8.00;;
76409;SDS011;65238;42.662;23.280;2024-02-14T03:24:21;11.43;;;7.35;;
76409;SDS011;65238;42.662;23.280;2024-02-14T03:26:47;9.85;;;6.75;;
76409;SDS011;65238;42.662;23.280;2024-02-14T03:29:12;15.70;;;9.20;;
76409;SDS011;65238;42.662;23.280;2024-02-14T03:31:38;11.35;;;7.50;;
76409;SDS011;65238;42.662;23.280;2024-02-14T03:34:03;11.98;;;7.35;;
76409;SDS011;65238;42.662;23.280;2024-02-14T03:36:29;12.70;;;7.97;;
76409;SDS011;65238;42.662;23.280;2024-02-14T03:38:56;14.50;;;8.15;;
76409;SDS011;65238;42.662;23.280;2024-02-14T03:41:22;12.90;;;7.68;;
76409;SDS011;65238;42.662;23.280;2024-02-14T03:43:48;13.48;;;7.88;;
76409;SDS011;65238;42.662;23.280;2024-02-14T03:46:15;14.65;;;7.95;;
76409;SDS011;65238;42.662;23.280;2024-02-14T03:48:43;12.23;;;7.47;;
76409;SDS011;65238;42.662;23.280;2024-02-14T03:51:09;15.70;;;7.88;;
76409;SDS011;65238;42.662;23.280;2024-02-14T03:53:34;12.68;;;7.70;;
76409;SDS011;65238;42.662;23.280;2024-02-14T03:55:59;12.20;;;7.88;;
76409;SDS011;65238;42.662;23.280;2024-02-14T03:58:25;12.95;;;8.23;;
76409;SDS011;65238;42.662;23.280;2024-02-14T04:00:51;13.70;;;8.10;;
76409;SDS011;65238;42.662;23.280;2024-02-14T04:03:17;13.43;;;7.43;;
76409;SDS011;65238;42.662;23.280;2024-02-14T04:05:43;12.60;;;7.80;;
76409;SDS011;65238;42.662;23.280;2024-02-14T04:08:10;13.85;;;8.30;;
76409;SDS011;65238;42.662;23.280;2024-02-14T04:10:36;11.90;;;7.93;;
76409;SDS011;65238;42.662;23.280;2024-02-14T04:13:05;13.00;;;8.30;;
76409;SDS011;65238;42.662;23.280;2024-02-14T04:15:31;14.18;;;8.48;;
76409;SDS011;65238;42.662;23.280;2024-02-14T04:17:57;13.95;;;8.25;;
76409;SDS011;65238;42.662;23.280;2024-02-14T04:20:23;12.90;;;8.05;;
76409;SDS011;65238;42.662;23.280;2024-02-14T04:22:48;13.60;;;8.00;;
76409;SDS011;65238;42.662;23.280;2024-02-14T04:25:14;14.07;;;8.50;;
76409;SDS011;65238;42.662;23.280;2024-02-14T04:27:40;13.45;;;8.45;;
76409;SDS011;65238;42.662;23.280;2024-02-14T04:30:05;15.68;;;8.77;;
76409;SDS011;65238;42.662;23.280;2024-02-14T04:32:31;13.15;;;8.50;;
76409;SDS011;65238;42.662;23.280;2024-02-14T04:34:56;17.77;;;9.60;;
76409;SDS011;65238;42.662;23.280;2024-02-14T04:37:23;14.45;;;8.55;;
76409;SDS011;65238;42.662;23.280;2024-02-14T04:39:48;14.43;;;9.07;;
76409;SDS011;65238;42.662;23.280;2024-02-14T04:42:14;14.75;;;8.80;;
76409;SDS011;65238;42.662;23.280;2024-02-14T04:44:39;14.80;;;9.32;;
76409;SDS011;65238;42.662;23.280;2024-02-14T04:47:05;15.85;;;9.57;;
76409;SDS011;65238;42.662;23.280;2024-02-14T04:49:30;15.15;;;9.55;;
76409;SDS011;65238;42.662;23.280;2024-02-14T04:51:56;14.75;;;9.23;;
76409;SDS011;65238;42.662;23.280;2024-02-14T04:54:22;17.70;;;9.77;;
76409;SDS011;65238;42.662;23.280;2024-02-14T04:56:47;13.30;;;9.45;;
76409;SDS011;65238;42.662;23.280;2024-02-14T04:59:13;19.55;;;10.77;;
76409;SDS011;65238;42.662;23.280;2024-02-14T05:01:38;16.60;;;10.60;;
76409;SDS011;65238;42.662;23.280;2024-02-14T05:04:06;15.00;;;9.90;;
76409;SDS011;65238;42.662;23.280;2024-02-14T05:06:32;17.23;;;10.27;;
76409;SDS011;65238;42.662;23.280;2024-02-14T05:08:58;17.58;;;10.65;;
76409;SDS011;65238;42.662;23.280;2024-02-14T05:11:23;16.15;;;10.23;;
76409;SDS011;65238;42.662;23.280;2024-02-14T05:13:49;19.58;;;10.32;;
76409;SDS011;65238;42.662;23.280;2024-02-14T05:16:17;16.85;;;10.48;;
76409;SDS011;65238;42.662;23.280;2024-02-14T05:18:43;18.23;;;11.00;;
76409;SDS011;65238;42.662;23.280;2024-02-14T05:21:09;19.00;;;12.13;;
76409;SDS011;65238;42.662;23.280;2024-02-14T05:23:34;23.73;;;11.40;;
76409;SDS011;65238;42.662;23.280;2024-02-14T05:26:00;18.58;;;11.55;;
76409;SDS011;65238;42.662;23.280;2024-02-14T05:28:29;19.52;;;11.40;;
76409;SDS011;65238;42.662;23.280;2024-02-14T05:30:56;16.75;;;10.70;;
76409;SDS011;65238;42.662;23.280;2024-02-14T05:33:21;21.33;;;12.38;;
76409;SDS011;65238;42.662;23.280;2024-02-14T05:35:51;18.95;;;11.63;;
76409;SDS011;65238;42.662;23.280;2024-02-14T05:38:17;19.88;;;12.13;;
76409;SDS011;65238;42.662;23.280;2024-02-14T05:40:46;22.08;;;12.52;;
76409;SDS011;65238;42.662;23.280;2024-02-14T05:43:12;19.35;;;11.95;;
76409;SDS011;65238;42.662;23.280;2024-02-14T05:45:38;19.38;;;12.02;;
76409;SDS011;65238;42.662;23.280;2024-02-14T05:48:03;21.45;;;13.18;;
76409;SDS011;65238;42.662;23.280;2024-02-14T05:50:29;20.05;;;12.75;;
76409;SDS011;65238;42.662;23.280;2024-02-14T05:52:55;21.85;;;13.13;;
76409;SDS011;65238;42.662;23.280;2024-02-14T05:55:22;19.40;;;12.40;;
76409;SDS011;65238;42.662;23.280;2024-02-14T05:57:48;20.40;;;11.98;;
76409;SDS011;65238;42.662;23.280;2024-02-14T06:00:14;23.40;;;13.10;;
76409;SDS011;65238;42.662;23.280;2024-02-14T06:02:39;16.33;;;10.38;;
76409;SDS011;65238;42.662;23.280;2024-02-14T06:05:05;24.05;;;13.02;;
76409;SDS011;65238;42.662;23.280;2024-02-14T06:07:35;19.23;;;12.55;;
76409;SDS011;65238;42.662;23.280;2024-02-14T06:10:01;23.17;;;13.40;;
76409;SDS011;65238;42.662;23.280;2024-02-14T06:12:26;20.58;;;12.88;;
76409;SDS011;65238;42.662;23.280;2024-02-14T06:14:52;20.40;;;12.20;;
76409;SDS011;65238;42.662;23.280;2024-02-14T06:17:17;24.27;;;13.32;;
76409;SDS011;65238;42.662;23.280;2024-02-14T06:19:43;17.15;;;10.60;;
76409;SDS011;65238;42.662;23.280;2024-02-14T06:22:08;27.42;;;15.80;;
76409;SDS011;65238;42.662;23.280;2024-02-14T06:24:35;25.50;;;14.15;;
76409;SDS011;65238;42.662;23.280;2024-02-14T06:27:01;28.25;;;14.75;;
76409;SDS011;65238;42.662;23.280;2024-02-14T06:29:26;22.42;;;13.45;;
76409;SDS011;65238;42.662;23.280;2024-02-14T06:31:52;18.85;;;12.27;;
76409;SDS011;65238;42.662;23.280;2024-02-14T06:34:17;17.13;;;10.98;;
76409;SDS011;65238;42.662;23.280;2024-02-14T06:36:44;18.67;;;12.02;;
76409;SDS011;65238;42.662;23.280;2024-02-14T06:39:11;19.90;;;10.68;;
76409;SDS011;65238;42.662;23.280;2024-02-14T06:41:37;20.38;;;11.20;;
76409;SDS011;65238;42.662;23.280;2024-02-14T06:44:02;21.48;;;11.60;;
76409;SDS011;65238;42.662;23.280;2024-02-14T06:46:28;17.17;;;10.82;;
76409;SDS011;65238;42.662;23.280;2024-02-14T06:48:53;18.20;;;11.02;;
76409;SDS011;65238;42.662;23.280;2024-02-14T06:51:19;19.58;;;11.57;;
76409;SDS011;65238;42.662;23.280;2024-02-14T06:53:45;18.23;;;10.52;;
76409;SDS011;65238;42.662;23.280;2024-02-14T06:56:11;18.85;;;9.98;;
76409;SDS011;65238;42.662;23.280;2024-02-14T06:58:36;17.65;;;11.07;;
76409;SDS011;65238;42.662;23.280;2024-02-14T07:01:02;19.13;;;11.13;;
76409;SDS011;65238;42.662;23.280;2024-02-14T07:03:28;18.77;;;11.07;;
76409;SDS011;65238;42.662;23.280;2024-02-14T07:05:53;18.88;;;10.98;;
76409;SDS011;65238;42.662;23.280;2024-02-14T07:08:19;18.67;;;10.32;;
76409;SDS011;65238;42.662;23.280;2024-02-14T07:10:45;16.58;;;9.90;;
76409;SDS011;65238;42.662;23.280;2024-02-14T07:13:10;16.15;;;9.73;;
76409;SDS011;65238;42.662;23.280;2024-02-14T07:15:35;15.25;;;9.07;;
76409;SDS011;65238;42.662;23.280;2024-02-14T07:18:01;17.42;;;10.07;;
76409;SDS011;65238;42.662;23.280;2024-02-14T07:20:27;18.95;;;9.52;;
76409;SDS011;65238;42.662;23.280;2024-02-14T07:22:52;15.70;;;8.90;;
76409;SDS011;65238;42.662;23.280;2024-02-14T07:25:18;12.90;;;7.78;;
76409;SDS011;65238;42.662;23.280;2024-02-14T07:27:45;12.38;;;7.93;;
76409;SDS011;65238;42.662;23.280;2024-02-14T07:30:11;12.75;;;8.15;;
76409;SDS011;65238;42.662;23.280;2024-02-14T07:32:37;12.45;;;8.48;;
76409;SDS011;65238;42.662;23.280;2024-02-14T07:35:03;13.65;;;9.13;;
76409;SDS011;65238;42.662;23.280;2024-02-14T07:37:30;12.05;;;8.30;;
76409;SDS011;65238;42.662;23.280;2024-02-14T07:39:55;12.13;;;8.13;;
76409;SDS011;65238;42.662;23.280;2024-02-14T07:42:21;13.70;;;8.15;;
76409;SDS011;65238;42.662;23.280;2024-02-14T07:44:46;14.57;;;9.07;;
76409;SDS011;65238;42.662;23.280;2024-02-14T07:47:12;12.18;;;8.13;;
76409;SDS011;65238;42.662;23.280;2024-02-14T07:49:38;13.30;;;8.80;;
76409;SDS011;65238;42.662;23.280;2024-02-14T07:52:04;12.70;;;8.50;;
76409;SDS011;65238;42.662;23.280;2024-02-14T07:54:30;12.45;;;8.52;;
76409;SDS011;65238;42.662;23.280;2024-02-14T07:56:55;13.40;;;7.82;;
76409;SDS011;65238;42.662;23.280;2024-02-14T07:59:21;13.80;;;8.40;;
76409;SDS011;65238;42.662;23.280;2024-02-14T08:01:46;12.35;;;8.13;;
76409;SDS011;65238;42.662;23.280;2024-02-14T08:04:11;11.45;;;7.88;;
76409;SDS011;65238;42.662;23.280;2024-02-14T08:06:37;14.27;;;8.40;;
76409;SDS011;65238;42.662;23.280;2024-02-14T08:09:02;12.73;;;7.75;;
76409;SDS011;65238;42.662;23.280;2024-02-14T08:11:31;13.52;;;7.65;;
76409;SDS011;65238;42.662;23.280;2024-02-14T08:13:57;14.82;;;8.13;;
76409;SDS011;65238;42.662;23.280;2024-02-14T08:16:23;14.18;;;7.60;;
76409;SDS011;65238;42.662;23.280;2024-02-14T08:18:49;15.82;;;9.15;;
76409;SDS011;65238;42.662;23.280;2024-02-14T08:21:16;13.63;;;8.10;;
76409;SDS011;65238;42.662;23.280;2024-02-14T08:23:41;10.63;;;7.75;;
76409;SDS011;65238;42.662;23.280;2024-02-14T08:26:08;14.75;;;8.02;;
76409;SDS011;65238;42.662;23.280;2024-02-14T08:28:38;12.65;;;8.13;;
76409;SDS011;65238;42.662;23.280;2024-02-14T08:31:09;16.27;;;8.63;;
76409;SDS011;65238;42.662;23.280;2024-02-14T08:36:02;13.32;;;7.35;;
76409;SDS011;65238;42.662;23.280;2024-02-14T08:38:28;12.48;;;7.40;;
76409;SDS011;65238;42.662;23.280;2024-02-14T08:40:53;14.23;;;8.02;;
76409;SDS011;65238;42.662;23.280;2024-02-14T08:43:19;13.98;;;7.80;;
76409;SDS011;65238;42.662;23.280;2024-02-14T08:45:44;12.30;;;8.18;;
76409;SDS011;65238;42.662;23.280;2024-02-14T08:48:09;11.02;;;7.57;;
76409;SDS011;65238;42.662;23.280;2024-02-14T08:50:35;13.77;;;7.18;;
76409;SDS011;65238;42.662;23.280;2024-02-14T08:53:00;14.60;;;7.60;;
76409;SDS011;65238;42.662;23.280;2024-02-14T08:55:26;12.35;;;7.63;;
76409;SDS011;65238;42.662;23.280;2024-02-14T08:57:51;12.70;;;7.93;;
76409;SDS011;65238;42.662;23.280;2024-02-14T09:00:17;13.32;;;7.20;;
76409;SDS011;65238;42.662;23.280;2024-02-14T09:02:47;12.30;;;8.20;;
76409;SDS011;65238;42.662;23.280;2024-02-14T09:05:12;13.60;;;7.70;;
76409;SDS011;65238;42.662;23.280;2024-02-14T09:07:38;11.75;;;6.45;;
76409;SDS011;65238;42.662;23.280;2024-02-14T09:10:04;11.50;;;7.80;;
76409;SDS011;65238;42.662;23.280;2024-02-14T09:12:31;13.23;;;7.28;;
76409;SDS011;65238;42.662;23.280;2024-02-14T09:14:57;13.95;;;8.05;;
76409;SDS011;65238;42.662;23.280;2024-02-14T09:17:22;10.27;;;7.45;;
76409;SDS011;65238;42.662;23.280;2024-02-14T09:19:48;13.70;;;7.88;;
76409;SDS011;65238;42.662;23.280;2024-02-14T09:22:13;11.90;;;7.30;;
76409;SDS011;65238;42.662;23.280;2024-02-14T09:24:45;15.75;;;7.72;;
76409;SDS011;65238;42.662;23.280;2024-02-14T09:27:11;11.85;;;8.05;;
76409;SDS011;65238;42.662;23.280;2024-02-14T09:29:36;14.55;;;8.40;;
76409;SDS011;65238;42.662;23.280;2024-02-14T09:32:03;13.02;;;7.90;;
76409;SDS011;65238;42.662;23.280;2024-02-14T09:34:29;14.07;;;8.65;;
76409;SDS011;65238;42.662;23.280;2024-02-14T09:36:54;14.80;;;8.82;;
76409;SDS011;65238;42.662;23.280;2024-02-14T09:39:21;13.13;;;8.68;;
76409;SDS011;65238;42.662;23.280;2024-02-14T09:41:50;15.52;;;8.45;;
76409;SDS011;65238;42.662;23.280;2024-02-14T09:44:19;16.40;;;8.60;;
76409;SDS011;65238;42.662;23.280;2024-02-14T09:46:46;14.90;;;8.30;;
76409;SDS011;65238;42.662;23.280;2024-02-14T09:49:13;12.02;;;8.00;;
76409;SDS011;65238;42.662;23.280;2024-02-14T09:51:39;14.70;;;8.43;;
76409;SDS011;65238;42.662;23.280;2024-02-14T09:54:06;13.27;;;8.50;;
76409;SDS011;65238;42.662;23.280;2024-02-14T09:56:32;13.90;;;7.88;;
76409;SDS011;65238;42.662;23.280;2024-02-14T09:58:57;14.02;;;8.52;;
76409;SDS011;65238;42.662;23.280;2024-02-14T10:01:25;13.93;;;8.02;;
76409;SDS011;65238;42.662;23.280;2024-02-14T10:03:52;12.52;;;8.10;;
76409;SDS011;65238;42.662;23.280;2024-02-14T10:06:18;11.32;;;7.55;;
76409;SDS011;65238;42.662;23.280;2024-02-14T10:08:50;12.57;;;8.02;;
76409;SDS011;65238;42.662;23.280;2024-02-14T10:11:16;12.68;;;7.50;;
76409;SDS011;65238;42.662;23.280;2024-02-14T10:13:45;12.88;;;7.80;;
76409;SDS011;65238;42.662;23.280;2024-02-14T10:16:12;12.45;;;7.50;;
76409;SDS011;65238;42.662;23.280;2024-02-14T10:18:38;12.05;;;8.00;;
76409;SDS011;65238;42.662;23.280;2024-02-14T10:21:04;12.85;;;8.50;;
76409;SDS011;65238;42.662;23.280;2024-02-14T10:23:29;11.90;;;7.53;;
76409;SDS011;65238;42.662;23.280;2024-02-14T10:25:55;10.07;;;6.90;;
76409;SDS011;65238;42.662;23.280;2024-02-14T10:28:22;12.00;;;7.80;;
76409;SDS011;65238;42.662;23.280;2024-02-14T10:30:48;13.38;;;7.65;;
76409;SDS011;65238;42.662;23.280;2024-02-14T10:33:16;9.48;;;6.65;;
76409;SDS011;65238;42.662;23.280;2024-02-14T10:35:42;12.93;;;7.88;;
76409;SDS011;65238;42.662;23.280;2024-02-14T10:38:08;11.63;;;7.97;;
76409;SDS011;65238;42.662;23.280;2024-02-14T10:40:37;12.38;;;7.63;;
76409;SDS011;65238;42.662;23.280;2024-02-14T10:43:08;12.05;;;7.28;;
76409;SDS011;65238;42.662;23.280;2024-02-14T10:45:37;13.35;;;7.93;;
76409;SDS011;65238;42.662;23.280;2024-02-14T10:48:04;13.05;;;7.20;;
76409;SDS011;65238;42.662;23.280;2024-02-14T10:50:32;13.68;;;8.13;;
76409;SDS011;65238;42.662;23.280;2024-02-14T10:52:59;12.93;;;7.25;;
76409;SDS011;65238;42.662;23.280;2024-02-14T10:55:25;11.32;;;7.47;;
76409;SDS011;65238;42.662;23.280;2024-02-14T10:57:54;12.75;;;7.80;;
76409;SDS011;65238;42.662;23.280;2024-02-14T11:00:20;14.32;;;8.40;;
76409;SDS011;65238;42.662;23.280;2024-02-14T11:02:46;15.27;;;7.97;;
76409;SDS011;65238;42.662;23.280;2024-02-14T11:05:14;14.68;;;7.82;;
76409;SDS011;65238;42.662;23.280;2024-02-14T11:07:45;13.38;;;8.75;;
76409;SDS011;65238;42.662;23.280;2024-02-14T11:10:17;14.07;;;8.15;;
76409;SDS011;65238;42.662;23.280;2024-02-14T11:12:46;14.55;;;8.98;;
76409;SDS011;65238;42.662;23.280;2024-02-14T11:15:22;10.95;;;7.00;;
76409;SDS011;65238;42.662;23.280;2024-02-14T11:18:03;15.38;;;9.00;;
76409;SDS011;65238;42.662;23.280;2024-02-14T11:20:34;12.05;;;7.97;;
76409;SDS011;65238;42.662;23.280;2024-02-14T11:23:04;12.87;;;7.83;;
76409;SDS011;65238;42.662;23.280;2024-02-14T11:25:31;15.50;;;9.05;;
76409;SDS011;65238;42.662;23.280;2024-02-14T11:27:59;11.75;;;7.50;;
76409;SDS011;65238;42.662;23.280;2024-02-14T11:30:30;16.17;;;8.60;;
76409;SDS011;65238;42.662;23.280;2024-02-14T11:35:45;12.38;;;7.43;;
76409;SDS011;65238;42.662;23.280;2024-02-14T11:38:12;10.77;;;7.47;;
76409;SDS011;65238;42.662;23.280;2024-02-14T11:40:38;11.95;;;8.18;;
76409;SDS011;65238;42.662;23.280;2024-02-14T11:43:04;13.10;;;7.45;;
76409;SDS011;65238;42.662;23.280;2024-02-14T11:45:30;13.05;;;7.80;;
76409;SDS011;65238;42.662;23.280;2024-02-14T11:47:56;13.63;;;7.93;;
76409;SDS011;65238;42.662;23.280;2024-02-14T11:50:21;12.82;;;7.93;;
76409;SDS011;65238;42.662;23.280;2024-02-14T11:52:47;18.58;;;9.20;;
76409;SDS011;65238;42.662;23.280;2024-02-14T11:55:12;13.85;;;7.97;;
76409;SDS011;65238;42.662;23.280;2024-02-14T11:57:40;14.63;;;8.38;;
76409;SDS011;65238;42.662;23.280;2024-02-14T12:00:07;11.95;;;7.28;;
76409;SDS011;65238;42.662;23.280;2024-02-14T12:02:33;14.23;;;7.90;;
76409;SDS011;65238;42.662;23.280;2024-02-14T12:04:59;15.75;;;8.82;;
76409;SDS011;65238;42.662;23.280;2024-02-14T12:07:25;11.63;;;7.30;;
76409;SDS011;65238;42.662;23.280;2024-02-14T12:09:51;11.45;;;7.28;;
76409;SDS011;65238;42.662;23.280;2024-02-14T12:12:16;11.73;;;7.43;;
76409;SDS011;65238;42.662;23.280;2024-02-14T12:14:45;12.63;;;7.25;;
76409;SDS011;65238;42.662;23.280;2024-02-14T12:17:15;12.25;;;7.45;;
76409;SDS011;65238;42.662;23.280;2024-02-14T12:19:43;13.10;;;7.53;;
76409;SDS011;65238;42.662;23.280;2024-02-14T12:22:10;12.13;;;7.43;;
76409;SDS011;65238;42.662;23.280;2024-02-14T12:24:43;13.10;;;7.25;;
76409;SDS011;65238;42.662;23.280;2024-02-14T12:27:09;10.45;;;7.07;;
76409;SDS011;65238;42.662;23.280;2024-02-14T12:29:35;10.77;;;6.88;;
76409;SDS011;65238;42.662;23.280;2024-02-14T12:32:04;9.63;;;6.22;;
76409;SDS011;65238;42.662;23.280;2024-02-14T12:34:31;11.48;;;7.15;;
76409;SDS011;65238;42.662;23.280;2024-02-14T12:36:57;10.90;;;7.18;;
76409;SDS011;65238;42.662;23.280;2024-02-14T12:39:24;13.25;;;7.63;;
76409;SDS011;65238;42.662;23.280;2024-02-14T12:41:52;11.02;;;6.55;;
76409;SDS011;65238;42.662;23.280;2024-02-14T12:44:18;10.52;;;6.57;;
76409;SDS011;65238;42.662;23.280;2024-02-14T12:46:43;13.82;;;7.07;;
76409;SDS011;65238;42.662;23.280;2024-02-14T12:49:09;10.65;;;6.35;;
76409;SDS011;65238;42.662;23.280;2024-02-14T12:51:36;10.75;;;7.07;;
76409;SDS011;65238;42.662;23.280;2024-02-14T12:54:03;10.98;;;6.82;;
76409;SDS011;65238;42.662;23.280;2024-02-14T12:56:29;13.73;;;7.70;;
76409;SDS011;65238;42.662;23.280;2024-02-14T12:58:54;10.23;;;6.78;;
76409;SDS011;65238;42.662;23.280;2024-02-14T13:01:20;9.85;;;6.22;;
76409;SDS011;65238;42.662;23.280;2024-02-14T13:03:45;10.32;;;6.65;;
76409;SDS011;65238;42.662;23.280;2024-02-14T13:06:11;9.90;;;6.40;;
76409;SDS011;65238;42.662;23.280;2024-02-14T13:08:36;11.45;;;6.72;;
76409;SDS011;65238;42.662;23.280;2024-02-14T13:11:04;13.70;;;6.68;;
76409;SDS011;65238;42.662;23.280;2024-02-14T13:13:30;11.38;;;6.25;;
76409;SDS011;65238;42.662;23.280;2024-02-14T13:15:56;12.63;;;7.05;;
76409;SDS011;65238;42.662;23.280;2024-02-14T13:18:21;13.05;;;7.78;;
76409;SDS011;65238;42.662;23.280;2024-02-14T13:20:47;17.48;;;7.43;;
76409;SDS011;65238;42.662;23.280;2024-02-14T13:23:13;14.63;;;7.40;;
76409;SDS011;65238;42.662;23.280;2024-02-14T13:25:39;16.00;;;8.05;;
76409;SDS011;65238;42.662;23.280;2024-02-14T13:28:05;19.77;;;9.80;;
76409;SDS011;65238;42.662;23.280;2024-02-14T13:30:31;16.45;;;7.85;;
76409;SDS011;65238;42.662;23.280;2024-02-14T13:32:56;14.73;;;7.03;;
76409;SDS011;65238;42.662;23.280;2024-02-14T13:35:22;16.15;;;7.78;;
76409;SDS011;65238;42.662;23.280;2024-02-14T13:37:48;14.68;;;7.55;;
76409;SDS011;65238;42.662;23.280;2024-02-14T13:40:14;13.82;;;7.07;;
76409;SDS011;65238;42.662;23.280;2024-02-14T13:42:39;14.93;;;7.60;;
76409;SDS011;65238;42.662;23.280;2024-02-14T13:45:05;11.85;;;7.47;;
76409;SDS011;65238;42.662;23.280;2024-02-14T13:47:41;15.20;;;8.00;;
76409;SDS011;65238;42.662;23.280;2024-02-14T13:50:09;12.20;;;7.60;;
76409;SDS011;65238;42.662;23.280;2024-02-14T13:52:35;13.20;;;7.75;;
76409;SDS011;65238;42.662;23.280;2024-02-14T13:55:04;13.90;;;7.40;;
76409;SDS011;65238;42.662;23.280;2024-02-14T13:57:39;13.07;;;7.72;;
76409;SDS011;65238;42.662;23.280;2024-02-14T14:00:05;12.57;;;7.00;;
76409;SDS011;65238;42.662;23.280;2024-02-14T14:02:34;12.57;;;7.13;;
76409;SDS011;65238;42.662;23.280;2024-02-14T14:05:02;10.50;;;6.80;;
76409;SDS011;65238;42.662;23.280;2024-02-14T14:07:28;11.40;;;6.25;;
76409;SDS011;65238;42.662;23.280;2024-02-14T14:09:54;14.95;;;6.88;;
76409;SDS011;65238;42.662;23.280;2024-02-14T14:12:19;12.73;;;6.97;;
76409;SDS011;65238;42.662;23.280;2024-02-14T14:14:45;14.55;;;6.30;;
76409;SDS011;65238;42.662;23.280;2024-02-14T14:17:11;10.38;;;5.75;;
76409;SDS011;65238;42.662;23.280;2024-02-14T14:19:36;9.50;;;6.30;;
76409;SDS011;65238;42.662;23.280;2024-02-14T14:22:01;10.60;;;6.60;;